Time;durP1;ratioP1;P1;durP2;ratioP2;P2;SDS_P1;SDS_P2;PMS_P1;PMS_P2;Temp;Humidity;BMP_temperature;BMP_pressure;BME280_temperature;BME280_humidity;BME280_pressure;Samples;Min_cycle;Max_cycle;Signal;HPM_P1;HPM_P2
2022/10/24 00:00:48;;;;;;;38.03;20.00;;;12.70;99.90;;;;;;4976868;28;20364;-72
2022/10/24 00:03:14;;;;;;;35.90;19.58;;;12.80;99.90;;;;;;4994287;28;20022;-72
2022/10/24 00:05:44;;;;;;;38.45;19.02;;;12.80;99.90;;;;;;4997171;28;20031;-73
2022/10/24 00:08:10;;;;;;;36.72;18.33;;;12.70;99.90;;;;;;4998423;28;20030;-73
2022/10/24 00:10:39;;;;;;;34.17;18.67;;;12.70;99.90;;;;;;4980743;28;20034;-73
2022/10/24 00:13:05;;;;;;;32.90;17.75;;;12.70;99.90;;;;;;4980669;28;20030;-73
2022/10/24 00:15:31;;;;;;;29.17;18.58;;;12.70;99.90;;;;;;4980565;28;20030;-73
2022/10/24 00:17:57;;;;;;;37.17;17.98;;;12.70;99.90;;;;;;4980641;28;20030;-73
2022/10/24 00:20:22;;;;;;;40.10;20.27;;;12.70;99.90;;;;;;4998281;28;20030;-73
2022/10/24 00:22:48;;;;;;;38.22;17.80;;;12.70;99.90;;;;;;4980589;28;20085;-72
2022/10/24 00:25:13;;;;;;;35.30;17.80;;;12.70;99.90;;;;;;4997959;28;20022;-73
2022/10/24 00:27:39;;;;;;;33.55;18.23;;;12.70;99.90;;;;;;4980441;28;20022;-73
2022/10/24 00:30:05;;;;;;;40.00;18.65;;;12.70;99.90;;;;;;4997794;28;20455;-73
2022/10/24 00:32:31;;;;;;;41.70;20.05;;;12.70;99.90;;;;;;4997608;28;20170;-72
2022/10/24 00:34:57;;;;;;;45.70;18.70;;;12.70;99.90;;;;;;4997723;28;20030;-73
2022/10/24 00:37:23;;;;;;;36.67;19.10;;;12.70;99.90;;;;;;4980284;28;20067;-72
2022/10/24 00:39:48;;;;;;;36.80;19.20;;;12.70;99.90;;;;;;4997753;28;20454;-72
2022/10/24 00:42:14;;;;;;;40.90;19.63;;;12.70;99.90;;;;;;4980147;28;20463;-72
2022/10/24 00:44:41;;;;;;;42.20;19.98;;;12.70;99.90;;;;;;4979990;28;20026;-73
2022/10/24 00:47:19;;;;;;;44.85;19.67;;;12.70;99.90;;;;;;4997526;28;20030;-73
2022/10/24 00:50:01;;;;;;;38.17;19.43;;;12.70;99.90;;;;;;4979975;28;20042;-73
2022/10/24 00:52:35;;;;;;;41.50;18.67;;;12.70;99.90;;;;;;4980547;28;20026;-73
2022/10/24 00:55:03;;;;;;;59.25;20.35;;;12.70;99.90;;;;;;4980599;28;20035;-73
2022/10/24 00:58:07;;;;;;;47.38;19.83;;;12.70;99.90;;;;;;4997097;28;20037;-72
2022/10/24 01:00:33;;;;;;;37.15;18.67;;;12.70;99.90;;;;;;4993723;28;20034;-73
2022/10/24 01:03:00;;;;;;;44.67;19.45;;;12.70;99.90;;;;;;4979454;28;20072;-72
2022/10/24 01:05:29;;;;;;;36.83;19.38;;;12.70;99.90;;;;;;4997192;28;20033;-73
2022/10/24 01:08:16;;;;;;;49.65;20.83;;;12.70;99.90;;;;;;4996986;28;20023;-72
2022/10/24 01:11:06;;;;;;;38.28;19.58;;;12.70;99.90;;;;;;4996856;28;20038;-73
2022/10/24 01:13:38;;;;;;;44.28;19.58;;;12.70;99.90;;;;;;4997094;28;20030;-73
2022/10/24 01:16:07;;;;;;;43.97;19.60;;;12.70;99.90;;;;;;4979525;28;20088;-72
2022/10/24 01:18:59;;;;;;;51.47;19.75;;;12.80;99.90;;;;;;4996713;28;20038;-73
2022/10/24 01:21:34;;;;;;;47.92;19.75;;;12.70;99.90;;;;;;4996954;28;20026;-73
2022/10/24 01:24:13;;;;;;;50.42;19.20;;;12.70;99.90;;;;;;4979764;28;20372;-73
2022/10/24 01:27:07;;;;;;;43.22;19.60;;;12.70;99.90;;;;;;4997250;28;20034;-73
2022/10/24 01:29:43;;;;;;;48.90;19.85;;;12.70;99.90;;;;;;4994302;28;20081;-73
2022/10/24 01:32:21;;;;;;;40.83;19.77;;;12.70;99.90;;;;;;4979943;28;20414;-73
2022/10/24 01:35:01;;;;;;;34.67;18.42;;;12.80;99.90;;;;;;4996781;28;20029;-73
2022/10/24 01:37:58;;;;;;;41.03;19.27;;;12.80;99.90;;;;;;4979511;28;20363;-73
2022/10/24 01:40:40;;;;;;;34.20;17.27;;;12.70;99.90;;;;;;4979161;28;20382;-73
2022/10/24 01:43:11;;;;;;;31.92;18.08;;;12.70;99.90;;;;;;4979089;28;20431;-73
2022/10/24 01:45:40;;;;;;;40.25;18.90;;;12.80;99.90;;;;;;4996877;28;20050;-73
2022/10/24 01:48:08;;;;;;;;;;;12.70;99.90;;;;;;4979227;28;20035;-73
2022/10/24 01:50:36;;;;;;;26.02;16.00;;;12.80;99.90;;;;;;4996173;28;19910;-73
2022/10/24 01:53:03;;;;;;;23.75;15.35;;;12.80;99.90;;;;;;4978973;28;20467;-73
2022/10/24 01:55:31;;;;;;;22.00;14.52;;;12.70;99.90;;;;;;4978798;28;20046;-73
2022/10/24 01:57:57;;;;;;;26.53;15.53;;;12.70;99.90;;;;;;4996052;28;20588;-72
2022/10/24 02:00:24;;;;;;;22.88;14.63;;;12.70;99.90;;;;;;4979038;28;20035;-73
2022/10/24 02:02:56;;;;;;;23.73;15.80;;;12.70;99.90;;;;;;4979023;28;20026;-72
2022/10/24 02:05:28;;;;;;;23.75;14.90;;;12.60;99.90;;;;;;4995847;28;20485;-73
2022/10/24 02:08:01;;;;;;;20.15;13.68;;;12.60;99.90;;;;;;4996227;28;20030;-73
2022/10/24 02:10:32;;;;;;;28.02;16.00;;;12.70;99.90;;;;;;4997086;28;20083;-72
2022/10/24 02:13:06;;;;;;;31.23;18.25;;;12.70;99.90;;;;;;4997717;28;20493;-72
2022/10/24 02:15:41;;;;;;;34.17;20.33;;;12.60;99.90;;;;;;4996279;28;20490;-72
2022/10/24 02:18:08;;;;;;;34.50;20.15;;;12.50;99.90;;;;;;4996788;28;20085;-72
2022/10/24 02:20:57;;;;;;;38.95;21.88;;;12.50;99.90;;;;;;4978387;28;20022;-73
2022/10/24 02:23:26;;;;;;;34.65;22.00;;;12.40;99.90;;;;;;4996055;28;20033;-72
2022/10/24 02:25:55;;;;;;;34.38;21.00;;;12.40;99.90;;;;;;4978645;28;20034;-74
2022/10/24 02:28:29;;;;;;;36.83;20.58;;;12.30;99.90;;;;;;4994691;28;20081;-72
2022/10/24 02:31:11;;;;;;;38.72;22.13;;;12.30;99.90;;;;;;4995411;28;20363;-72
2022/10/24 02:33:38;;;;;;;34.75;20.08;;;12.30;99.90;;;;;;4977845;28;20033;-73
2022/10/24 02:36:05;;;;;;;37.67;19.33;;;12.30;99.90;;;;;;4978046;28;20027;-72
2022/10/24 02:38:38;;;;;;;33.90;19.58;;;12.30;99.90;;;;;;4995102;28;20037;-72
2022/10/24 02:41:10;;;;;;;32.72;19.20;;;12.30;99.90;;;;;;4978072;28;20022;-72
2022/10/24 02:43:37;;;;;;;33.65;19.73;;;12.30;99.90;;;;;;4995941;28;20025;-72
2022/10/24 02:46:05;;;;;;;37.10;20.08;;;12.20;99.90;;;;;;4978864;28;20494;-72
2022/10/24 02:48:35;;;;;;;37.92;21.85;;;12.20;99.90;;;;;;4996367;28;20030;-72
2022/10/24 02:51:01;;;;;;;39.78;22.45;;;12.10;99.90;;;;;;4996681;28;20113;-72
2022/10/24 02:53:27;;;;;;;39.17;20.92;;;12.10;99.90;;;;;;4978330;28;20510;-73
2022/10/24 02:55:53;;;;;;;39.42;21.50;;;12.10;99.90;;;;;;4995631;28;20061;-72
2022/10/24 02:58:19;;;;;;;39.95;21.58;;;12.00;99.90;;;;;;4995617;28;20025;-72
2022/10/24 03:00:44;;;;;;;40.55;21.38;;;12.00;99.90;;;;;;4995969;28;20022;-72
2022/10/24 03:03:10;;;;;;;41.30;21.10;;;12.00;99.90;;;;;;4978985;28;20374;-72
2022/10/24 03:05:36;;;;;;;42.90;20.60;;;12.00;99.90;;;;;;4996868;28;20058;-72
2022/10/24 03:08:01;;;;;;;37.95;19.50;;;11.90;99.90;;;;;;4998614;28;20023;-72
2022/10/24 03:10:27;;;;;;;34.80;19.85;;;11.80;99.90;;;;;;4981122;28;20034;-72
2022/10/24 03:12:52;;;;;;;39.03;19.02;;;11.80;99.90;;;;;;4980946;28;20483;-71
2022/10/24 03:15:18;;;;;;;34.95;18.38;;;11.80;99.90;;;;;;4998016;28;20025;-72
2022/10/24 03:17:47;;;;;;;32.92;18.92;;;11.80;99.90;;;;;;4979596;28;20072;-72
2022/10/24 03:20:14;;;;;;;29.45;18.63;;;11.70;99.90;;;;;;4978619;28;20084;-72
2022/10/24 03:22:40;;;;;;;32.00;17.63;;;11.70;99.90;;;;;;4978676;28;20028;-72
2022/10/24 03:25:06;;;;;;;27.73;16.05;;;11.70;99.90;;;;;;4995625;28;20030;-72
2022/10/24 03:27:32;;;;;;;28.98;16.40;;;11.70;99.90;;;;;;4977398;28;20026;-72
2022/10/24 03:30:17;;;;;;;25.80;15.73;;;11.60;99.90;;;;;;4977138;28;20390;-72
2022/10/24 03:32:43;;;;;;;26.95;15.40;;;11.60;99.90;;;;;;4977308;28;20027;-72
2022/10/24 03:35:09;;;;;;;25.83;15.13;;;11.60;99.90;;;;;;4977070;28;20359;-73
2022/10/24 03:37:35;;;;;;;27.65;15.52;;;11.50;99.90;;;;;;4994583;28;20030;-72
2022/10/24 03:40:00;;;;;;;27.55;15.35;;;11.50;99.90;;;;;;4993749;28;20037;-72
2022/10/24 03:42:26;;;;;;;28.13;15.52;;;11.50;99.90;;;;;;4977143;28;20450;-72
2022/10/24 03:44:52;;;;;;;25.67;14.48;;;11.50;99.90;;;;;;4994308;28;20026;-72
2022/10/24 03:47:18;;;;;;;25.05;14.90;;;11.50;99.90;;;;;;4994488;28;20105;-72
2022/10/24 03:49:44;;;;;;;26.10;15.63;;;11.40;99.90;;;;;;4976959;28;20034;-72
2022/10/24 03:52:10;;;;;;;26.67;14.40;;;11.40;99.90;;;;;;4977409;28;20434;-72
2022/10/24 03:54:35;;;;;;;25.52;14.38;;;11.40;99.90;;;;;;4977056;28;20497;-72
2022/10/24 03:57:02;;;;;;;24.30;14.43;;;11.40;99.90;;;;;;4994544;28;20023;-72
2022/10/24 03:59:28;;;;;;;22.58;13.55;;;11.40;99.90;;;;;;4977105;28;20042;-73
2022/10/24 04:01:53;;;;;;;22.75;14.05;;;11.40;99.90;;;;;;4994607;28;20068;-72
2022/10/24 04:04:19;;;;;;;19.77;12.48;;;11.50;99.90;;;;;;4995013;28;20046;-72
2022/10/24 04:06:45;;;;;;;22.40;12.02;;;11.50;99.90;;;;;;4977231;28;20117;-72
2022/10/24 04:09:11;;;;;;;22.85;11.65;;;11.50;99.90;;;;;;4977121;28;20030;-72
2022/10/24 04:11:37;;;;;;;21.33;13.18;;;11.50;99.90;;;;;;4977064;28;20138;-73
2022/10/24 04:14:03;;;;;;;22.88;12.40;;;11.50;99.90;;;;;;4976793;28;20080;-72
2022/10/24 04:16:28;;;;;;;19.48;11.13;;;11.50;99.90;;;;;;4977036;28;20031;-73
2022/10/24 04:18:54;;;;;;;20.92;12.40;;;11.50;99.90;;;;;;4994719;28;20040;-72
2022/10/24 04:21:20;;;;;;;16.02;10.75;;;11.60;99.90;;;;;;4994097;28;20023;-72
2022/10/24 04:23:45;;;;;;;18.27;11.40;;;11.50;99.90;;;;;;4977270;28;20033;-73
2022/10/24 04:26:13;;;;;;;18.02;11.68;;;11.60;99.90;;;;;;4976825;28;20026;-72
2022/10/24 04:28:39;;;;;;;15.88;11.07;;;11.60;99.90;;;;;;4976369;28;20038;-72
2022/10/24 04:31:05;;;;;;;17.75;10.15;;;11.60;99.90;;;;;;4976606;28;20034;-72
2022/10/24 04:33:31;;;;;;;14.25;10.25;;;11.50;99.90;;;;;;4976478;28;20030;-72
2022/10/24 04:35:57;;;;;;;19.55;11.38;;;11.50;99.90;;;;;;4976235;28;20026;-72
2022/10/24 04:38:23;;;;;;;14.60;10.20;;;11.50;99.90;;;;;;4993972;28;20080;-73
2022/10/24 04:40:50;;;;;;;15.63;10.38;;;11.40;99.90;;;;;;4994369;28;20542;-73
2022/10/24 04:43:16;;;;;;;16.63;10.63;;;11.50;99.90;;;;;;4994000;28;20422;-72
2022/10/24 04:45:42;;;;;;;16.92;10.93;;;11.50;99.90;;;;;;4994518;28;20049;-73
2022/10/24 04:48:08;;;;;;;17.40;11.13;;;11.50;99.90;;;;;;4994602;28;20030;-72
2022/10/24 04:50:34;;;;;;;18.80;11.18;;;11.50;99.90;;;;;;4995699;28;20036;-73
2022/10/24 04:53:00;;;;;;;18.83;11.70;;;11.50;99.90;;;;;;4981239;28;20116;-72
2022/10/24 04:55:26;;;;;;;17.48;11.73;;;11.50;99.90;;;;;;4980732;28;20077;-73
2022/10/24 04:57:52;;;;;;;20.33;11.48;;;11.50;99.90;;;;;;4997753;28;20080;-73
2022/10/24 05:00:18;;;;;;;19.30;12.68;;;11.50;99.90;;;;;;4997878;28;20026;-73
2022/10/24 05:02:44;;;;;;;20.33;12.02;;;11.50;99.90;;;;;;4980629;28;20026;-73
2022/10/24 05:05:09;;;;;;;19.25;12.10;;;11.50;99.90;;;;;;4979919;28;20032;-72
2022/10/24 05:07:35;;;;;;;21.10;13.13;;;11.60;99.90;;;;;;4979741;28;20030;-72
2022/10/24 05:10:02;;;;;;;19.33;12.52;;;11.60;99.90;;;;;;4979816;28;20069;-74
2022/10/24 05:12:27;;;;;;;18.42;11.98;;;11.60;99.90;;;;;;4979709;28;20413;-74
2022/10/24 05:14:53;;;;;;;18.33;13.52;;;11.60;99.90;;;;;;4979589;28;20027;-73
2022/10/24 05:17:19;;;;;;;21.25;13.13;;;11.60;99.90;;;;;;4997241;28;20077;-73
2022/10/24 05:19:45;;;;;;;20.48;12.60;;;11.50;99.90;;;;;;4980522;28;20073;-73
2022/10/24 05:22:10;;;;;;;19.73;12.88;;;11.40;99.90;;;;;;4996909;28;20035;-73
2022/10/24 05:24:36;;;;;;;19.58;13.13;;;11.30;99.90;;;;;;4979684;28;20069;-73
2022/10/24 05:27:02;;;;;;;21.77;11.98;;;11.30;99.90;;;;;;4996816;28;20076;-72
2022/10/24 05:29:27;;;;;;;19.42;12.93;;;11.20;99.90;;;;;;4996570;28;20041;-73
2022/10/24 05:31:53;;;;;;;21.15;12.13;;;11.20;99.90;;;;;;4996895;28;20470;-72
2022/10/24 05:34:19;;;;;;;18.88;12.02;;;11.10;99.90;;;;;;4979794;28;20034;-71
2022/10/24 05:36:44;;;;;;;19.52;12.23;;;11.10;99.90;;;;;;4998885;28;20030;-72
2022/10/24 05:39:10;;;;;;;19.10;13.20;;;11.00;99.90;;;;;;4997677;28;20042;-72
2022/10/24 05:41:36;;;;;;;22.35;13.63;;;11.00;99.90;;;;;;4979922;28;20462;-72
2022/10/24 05:44:01;;;;;;;24.17;14.50;;;11.00;99.90;;;;;;4979286;28;20031;-73
2022/10/24 05:46:27;;;;;;;21.58;14.48;;;11.00;99.90;;;;;;4996087;28;20062;-72
2022/10/24 05:48:53;;;;;;;22.58;13.00;;;11.00;99.90;;;;;;4996258;28;20039;-72
2022/10/24 05:51:18;;;;;;;19.52;13.15;;;11.10;99.90;;;;;;4979006;28;20022;-72
2022/10/24 05:53:44;;;;;;;21.17;13.98;;;11.10;99.90;;;;;;4978905;28;20069;-72
2022/10/24 05:56:09;;;;;;;21.30;12.73;;;11.10;99.90;;;;;;4996235;28;20026;-72
2022/10/24 05:58:35;;;;;;;19.75;12.32;;;11.20;99.90;;;;;;4996292;28;20030;-73
2022/10/24 06:01:01;;;;;;;18.02;12.48;;;11.20;99.90;;;;;;4978859;28;20088;-72
2022/10/24 06:03:26;;;;;;;19.65;12.13;;;11.20;99.90;;;;;;4977609;28;20033;-72
2022/10/24 06:05:52;;;;;;;23.45;12.85;;;11.30;99.90;;;;;;4996382;28;20034;-72
2022/10/24 06:08:18;;;;;;;23.45;13.30;;;11.30;99.90;;;;;;4995841;28;20518;-72
2022/10/24 06:10:49;;;;;;;17.77;12.25;;;11.30;99.90;;;;;;4996143;28;20030;-72
2022/10/24 06:13:15;;;;;;;16.42;11.82;;;11.40;99.90;;;;;;4978387;28;20030;-72
2022/10/24 06:15:42;;;;;;;21.30;12.85;;;11.40;99.90;;;;;;4995537;28;20514;-73
2022/10/24 06:18:08;;;;;;;21.00;12.18;;;11.40;99.90;;;;;;4978494;28;20483;-73
2022/10/24 06:20:33;;;;;;;18.67;12.43;;;11.40;99.90;;;;;;4995521;28;20034;-72
2022/10/24 06:22:59;;;;;;;21.02;13.25;;;11.50;99.90;;;;;;4995395;28;20026;-72
2022/10/24 06:25:25;;;;;;;25.45;13.30;;;11.50;99.90;;;;;;4995393;28;20089;-73
2022/10/24 06:27:50;;;;;;;21.23;12.50;;;11.60;99.90;;;;;;4978478;28;20466;-72
2022/10/24 06:30:16;;;;;;;21.73;12.13;;;11.60;99.90;;;;;;4995868;28;20105;-72
2022/10/24 06:32:42;;;;;;;19.30;12.82;;;11.70;99.90;;;;;;4995261;28;20379;-73
2022/10/24 06:35:11;;;;;;;20.70;14.02;;;11.80;99.90;;;;;;4995293;28;20030;-73
2022/10/24 06:37:37;;;;;;;21.13;12.40;;;12.00;99.90;;;;;;4995441;28;20022;-73
2022/10/24 06:40:03;;;;;;;20.25;13.45;;;12.30;99.90;;;;;;4995460;28;20049;-73
2022/10/24 06:42:29;;;;;;;24.30;10.63;;;12.60;99.90;;;;;;4995491;28;20070;-73
2022/10/24 06:44:55;;;;;;;25.98;11.18;;;13.00;99.90;;;;;;4995169;28;20022;-73
2022/10/24 06:47:20;;;;;;;18.48;10.90;;;13.30;99.90;;;;;;4995532;28;20037;-73
2022/10/24 06:49:46;;;;;;;19.77;10.57;;;13.60;99.90;;;;;;4995208;28;20038;-72
2022/10/24 06:52:12;;;;;;;18.13;10.02;;;14.00;99.90;;;;;;4995172;28;20034;-72
2022/10/24 06:54:38;;;;;;;19.25;9.85;;;14.40;99.90;;;;;;4994935;28;20085;-72
2022/10/24 06:57:03;;;;;;;15.07;8.90;;;14.80;99.90;;;;;;4995083;28;20474;-72
2022/10/24 06:59:29;;;;;;;14.60;8.48;;;15.10;99.90;;;;;;4977733;28;20030;-72
2022/10/24 07:01:55;;;;;;;14.80;9.70;;;15.20;99.90;;;;;;4994712;28;20123;-73
2022/10/24 07:04:21;;;;;;;12.98;8.77;;;15.10;99.90;;;;;;4995006;28;20097;-72
2022/10/24 07:06:47;;;;;;;19.42;8.38;;;15.00;99.90;;;;;;4995121;28;20031;-72
2022/10/24 07:09:12;;;;;;;15.98;8.55;;;15.00;99.90;;;;;;4977306;28;20038;-72
2022/10/24 07:11:38;;;;;;;14.60;8.80;;;15.00;99.90;;;;;;4977310;28;20030;-72
2022/10/24 07:14:05;;;;;;;13.30;7.85;;;15.00;99.90;;;;;;4995087;28;20042;-72
2022/10/24 07:16:30;;;;;;;16.40;8.00;;;15.10;99.90;;;;;;4994781;28;20030;-73
2022/10/24 07:18:56;;;;;;;11.43;7.40;;;15.20;99.90;;;;;;4994864;28;20077;-72
2022/10/24 07:21:27;;;;;;;8.52;6.85;;;15.20;99.90;;;;;;4977195;28;20092;-72
2022/10/24 07:23:54;;;;;;;10.45;7.35;;;15.10;99.90;;;;;;4994971;28;20026;-72
2022/10/24 07:26:22;;;;;;;11.30;7.20;;;15.20;99.90;;;;;;4977183;28;20109;-72
2022/10/24 07:28:52;;;;;;;13.75;7.25;;;15.50;99.90;;;;;;4977009;28;20034;-72
2022/10/24 07:31:23;;;;;;;11.77;8.05;;;15.80;99.90;;;;;;4994639;28;20378;-72
2022/10/24 07:33:49;;;;;;;12.75;7.78;;;16.20;99.90;;;;;;4994875;28;20045;-72
2022/10/24 07:36:18;;;;;;;15.73;8.20;;;16.50;99.90;;;;;;4994786;28;20034;-72
2022/10/24 07:38:45;;;;;;;10.40;7.30;;;16.60;99.90;;;;;;4994552;28;20026;-72
2022/10/24 07:41:10;;;;;;;9.63;6.88;;;16.90;99.90;;;;;;4994174;28;20026;-72
2022/10/24 07:43:36;;;;;;;10.02;7.07;;;17.30;99.90;;;;;;4994486;28;20033;-72
2022/10/24 07:46:10;;;;;;;9.70;7.47;;;17.50;99.90;;;;;;4976546;28;20105;-72
2022/10/24 07:48:37;;;;;;;8.52;7.15;;;17.40;99.90;;;;;;4994248;28;20475;-72
2022/10/24 07:51:10;;;;;;;11.10;6.70;;;17.50;99.90;;;;;;4976962;28;20430;-72
2022/10/24 07:53:36;;;;;;;13.57;7.68;;;17.70;99.90;;;;;;4977043;28;20092;-72
2022/10/24 07:56:07;;;;;;;8.10;7.15;;;17.30;99.90;;;;;;4976869;28;20033;-72
2022/10/24 07:58:34;;;;;;;11.52;7.65;;;17.10;99.90;;;;;;4976512;28;20089;-72
2022/10/24 08:01:07;;;;;;;14.82;7.40;;;17.10;99.90;;;;;;4977254;28;20108;-72
2022/10/24 08:03:34;;;;;;;12.20;7.40;;;17.40;99.90;;;;;;4976743;28;20497;-72
2022/10/24 08:06:02;;;;;;;11.73;7.20;;;17.80;99.90;;;;;;4994192;28;20552;-72
2022/10/24 08:08:28;;;;;;;;;;;18.20;99.90;;;;;;4994636;28;20033;-71
2022/10/24 08:10:54;;;;;;;11.90;7.72;;;18.60;99.90;;;;;;4994400;28;19906;-72
2022/10/24 08:13:19;;;;;;;11.25;7.65;;;18.80;99.90;;;;;;4994198;28;20057;-72
2022/10/24 08:15:45;;;;;;;13.48;7.82;;;18.80;99.90;;;;;;4976603;28;20483;-72
2022/10/24 08:18:10;;;;;;;10.05;6.88;;;19.00;99.90;;;;;;4994061;28;20022;-71
2022/10/24 08:20:36;;;;;;;8.85;7.20;;;19.20;99.90;;;;;;4994158;28;20034;-72
2022/10/24 08:23:02;;;;;;;12.98;7.25;;;19.60;99.90;;;;;;4976574;28;20030;-73
2022/10/24 08:25:28;;;;;;;10.43;6.47;;;20.00;99.90;;;;;;4994734;28;20430;-72
2022/10/24 08:27:53;;;;;;;11.23;7.30;;;20.50;99.90;;;;;;4980468;28;20030;-72
2022/10/24 08:30:19;;;;;;;10.57;7.30;;;20.70;99.90;;;;;;4980361;28;20113;-72
2022/10/24 08:32:45;;;;;;;13.30;7.60;;;20.90;99.90;;;;;;4980612;28;20106;-72
2022/10/24 08:35:16;;;;;;;9.77;8.00;;;20.90;99.90;;;;;;4997832;28;20026;-73
2022/10/24 08:37:42;;;;;;;11.35;7.50;;;20.60;99.90;;;;;;4980603;28;20525;-72
2022/10/24 08:40:15;;;;;;;9.15;7.78;;;20.50;99.90;;;;;;4997429;28;20422;-72
2022/10/24 08:42:41;;;;;;;10.70;7.65;;;20.20;99.90;;;;;;4980069;28;20462;-73
2022/10/24 08:45:15;;;;;;;12.20;8.82;;;19.80;99.90;;;;;;4979895;28;20101;-73
2022/10/24 08:48:08;;;;;;;11.23;9.18;;;19.20;99.90;;;;;;4980334;28;20033;-72
2022/10/24 08:50:37;;;;;;;11.95;8.70;;;18.90;99.90;;;;;;4997411;28;20042;-72
2022/10/24 08:53:29;;;;;;;12.35;8.57;;;18.60;99.90;;;;;;4980090;28;20093;-72
2022/10/24 08:55:59;;;;;;;11.32;8.93;;;18.30;99.90;;;;;;4993971;28;20030;-72
2022/10/24 08:58:39;;;;;;;11.75;8.98;;;17.90;99.90;;;;;;4997477;28;20026;-72
2022/10/24 09:01:13;;;;;;;12.55;8.85;;;17.80;99.90;;;;;;4997130;28;20022;-72
2022/10/24 09:03:45;;;;;;;11.05;8.77;;;17.80;99.90;;;;;;4997375;28;20041;-72
2022/10/24 09:06:27;;;;;;;14.25;10.35;;;17.60;99.90;;;;;;4979838;28;20069;-72
2022/10/24 09:08:54;;;;;;;10.77;8.85;;;17.50;99.90;;;;;;4997512;28;20375;-72
2022/10/24 09:11:53;;;;;;;14.57;8.13;;;17.70;99.90;;;;;;4979656;28;20030;-72
2022/10/24 09:14:36;;;;;;;11.20;8.18;;;18.20;99.90;;;;;;4997114;28;20050;-72
2022/10/24 09:17:22;;;;;;;16.52;8.32;;;18.70;99.90;;;;;;4979744;28;20030;-72
2022/10/24 09:19:58;;;;;;;10.95;8.13;;;18.60;99.90;;;;;;4996705;28;20044;-73
2022/10/24 09:22:27;;;;;;;15.18;8.65;;;18.40;99.90;;;;;;4979534;28;20033;-72
2022/10/24 09:24:54;;;;;;;;;;;18.00;99.90;;;;;;4979803;28;20121;-72
2022/10/24 09:27:24;;;;;;;13.85;8.80;;;17.60;99.90;;;;;;4979668;28;19992;-68
2022/10/24 09:29:50;;;;;;;15.20;9.00;;;17.40;99.90;;;;;;4996718;28;20065;-71
2022/10/24 09:32:23;;;;;;;13.60;10.20;;;17.20;99.90;;;;;;4979272;28;20041;-72
2022/10/24 09:34:49;;;;;;;13.90;9.73;;;17.10;99.90;;;;;;4979176;28;20438;-72
2022/10/24 09:37:36;;;;;;;16.42;9.98;;;17.00;99.90;;;;;;4979207;28;20049;-71
2022/10/24 09:40:11;;;;;;;12.38;9.57;;;17.10;99.90;;;;;;4979091;28;20034;-72
2022/10/24 09:42:38;;;;;;;12.93;9.20;;;17.10;99.90;;;;;;4979126;28;20022;-72
2022/10/24 09:45:28;;;;;;;14.52;9.82;;;17.10;99.90;;;;;;4996415;28;20177;-72
2022/10/24 09:48:03;;;;;;;14.55;9.70;;;17.20;99.90;;;;;;4996423;28;20026;-71
2022/10/24 09:50:34;;;;;;;13.60;9.32;;;17.20;99.90;;;;;;4996514;28;20121;-71
2022/10/24 09:53:02;;;;;;;16.73;8.43;;;17.20;99.90;;;;;;4979205;28;20022;-71
2022/10/24 09:55:28;;;;;;;12.68;8.35;;;17.30;99.90;;;;;;4978810;28;20026;-71
2022/10/24 09:57:56;;;;;;;12.02;8.50;;;17.30;99.90;;;;;;4978898;28;20101;-71
2022/10/24 10:00:35;;;;;;;12.75;8.05;;;17.30;99.90;;;;;;4996134;28;20022;-72
2022/10/24 10:03:04;;;;;;;9.95;7.68;;;17.20;99.90;;;;;;4996252;28;20057;-72
2022/10/24 10:05:42;;;;;;;13.20;7.55;;;17.20;99.90;;;;;;4978615;28;20034;-72
2022/10/24 10:08:17;;;;;;;12.70;8.32;;;17.20;99.90;;;;;;4978650;28;20040;-72
2022/10/24 10:10:53;;;;;;;13.73;7.63;;;17.30;99.90;;;;;;4996077;28;20054;-72
2022/10/24 10:13:23;;;;;;;9.25;6.78;;;17.50;99.90;;;;;;4996482;28;20037;-72
2022/10/24 10:15:51;;;;;;;10.68;7.47;;;17.70;99.90;;;;;;4978575;28;20061;-72
2022/10/24 10:18:28;;;;;;;11.38;7.32;;;17.80;99.90;;;;;;4995855;28;20089;-72
2022/10/24 10:21:14;;;;;;;15.07;7.50;;;17.70;99.90;;;;;;4978410;28;20022;-72
2022/10/24 10:23:55;;;;;;;11.82;7.97;;;17.80;99.90;;;;;;4995793;28;20110;-72
2022/10/24 10:26:43;;;;;;;13.40;7.45;;;17.80;99.90;;;;;;4978685;28;20027;-72
2022/10/24 10:29:15;;;;;;;12.52;8.00;;;17.80;99.90;;;;;;4978156;28;20038;-72
2022/10/24 10:32:00;;;;;;;13.48;8.45;;;17.80;99.90;;;;;;4995949;28;20030;-73
2022/10/24 10:34:34;;;;;;;15.15;8.07;;;17.90;99.90;;;;;;4978373;28;20113;-73
2022/10/24 10:37:27;;;;;;;14.38;7.78;;;18.10;99.90;;;;;;4995732;28;20022;-72
2022/10/24 10:40:28;;;;;;;12.73;7.57;;;18.10;99.90;;;;;;4995859;28;20027;-72
2022/10/24 10:43:27;;;;;;;11.07;7.55;;;18.20;99.90;;;;;;4977937;28;20062;-72
2022/10/24 10:46:15;;;;;;;15.25;7.10;;;18.10;99.90;;;;;;4974614;28;20046;-71
2022/10/24 10:49:09;;;;;;;14.15;7.93;;;18.10;99.90;;;;;;4975138;28;20113;-72
2022/10/24 10:51:43;;;;;;;15.80;7.88;;;17.90;99.90;;;;;;4975548;28;20037;-72
2022/10/24 10:54:44;;;;;;;8.70;7.10;;;17.90;99.90;;;;;;4975723;28;20035;-71
2022/10/24 10:57:28;;;;;;;11.00;6.80;;;17.90;99.90;;;;;;4915958;29;20156;-72
2022/10/24 11:00:08;;;;;;;11.70;7.00;;;17.90;99.90;;;;;;4970902;28;20050;-72
2022/10/24 11:03:05;;;;;;;14.63;7.50;;;17.90;99.90;;;;;;4975514;28;20047;-72
2022/10/24 11:05:57;;;;;;;19.60;8.85;;;17.90;99.90;;;;;;4974300;28;20023;-71
2022/10/24 11:08:28;;;;;;;12.23;7.60;;;18.00;99.90;;;;;;4975455;28;20023;-71
2022/10/24 11:10:59;;;;;;;13.82;8.55;;;18.20;99.90;;;;;;4974249;28;20027;-71
2022/10/24 11:13:35;;;;;;;12.27;8.00;;;18.30;99.90;;;;;;4974140;28;20117;-71
2022/10/24 11:16:06;;;;;;;10.80;7.78;;;18.10;99.90;;;;;;4975407;28;20078;-71
2022/10/24 11:18:36;;;;;;;11.60;7.57;;;18.20;99.90;;;;;;4975486;28;20082;-71
2022/10/24 11:21:11;;;;;;;15.88;8.00;;;18.40;99.90;;;;;;4975362;28;20023;-72
2022/10/24 11:23:54;;;;;;;13.30;8.02;;;18.40;99.90;;;;;;4975281;28;20034;-72
2022/10/24 11:26:32;;;;;;;9.60;7.75;;;18.50;99.90;;;;;;4974859;28;20031;-71
2022/10/24 11:29:24;;;;;;;9.98;7.20;;;19.00;99.90;;;;;;4975090;28;20035;-71
2022/10/24 11:32:22;;;;;;;14.77;7.60;;;19.30;99.90;;;;;;4975089;28;20035;-72
2022/10/24 11:34:54;;;;;;;11.98;7.93;;;19.70;99.90;;;;;;4973042;28;20031;-71
2022/10/24 11:37:28;;;;;;;14.05;7.80;;;20.10;99.90;;;;;;4975257;28;20066;-71
2022/10/24 11:40:01;;;;;;;11.32;6.72;;;20.20;99.90;;;;;;4974995;28;20038;-72
2022/10/24 11:42:36;;;;;;;10.57;6.80;;;20.40;99.90;;;;;;4974996;28;20027;-72
2022/10/24 11:45:09;;;;;;;9.57;7.30;;;20.70;99.90;;;;;;4977667;28;20065;-73
2022/10/24 11:47:52;;;;;;;10.30;6.65;;;20.60;99.90;;;;;;4976941;28;20054;-72
2022/10/24 11:50:37;;;;;;;10.38;6.68;;;20.60;99.90;;;;;;4977321;28;20074;-72
2022/10/24 11:53:21;;;;;;;10.30;6.32;;;21.00;99.90;;;;;;4976721;28;20459;-72
2022/10/24 11:55:53;;;;;;;7.75;5.40;;;21.20;99.90;;;;;;4991607;28;21391;-78
2022/10/24 11:58:21;;;;;;;10.88;6.38;;;21.60;99.90;;;;;;4968184;28;20058;-73
2022/10/24 12:01:05;;;;;;;8.82;5.53;;;22.00;99.90;;;;;;4988398;28;20042;-73
2022/10/24 12:03:56;;;;;;;7.32;4.97;;;22.80;99.60;;;;;;4972526;28;20129;-74
2022/10/24 12:06:21;;;;;;;9.18;4.97;;;23.20;98.00;;;;;;4989199;28;20243;-73
2022/10/24 12:09:05;;;;;;;8.30;4.97;;;23.30;97.10;;;;;;4989864;28;20642;-76
2022/10/24 12:12:12;;;;;;;7.10;4.38;;;22.90;96.80;;;;;;4972402;28;20077;-72
2022/10/24 12:15:10;;;;;;;7.70;4.82;;;22.40;97.30;;;;;;4971295;28;20041;-74
2022/10/24 12:17:45;;;;;;;9.70;4.82;;;22.10;97.40;;;;;;4990426;28;20382;-71
2022/10/24 12:20:14;;;;;;;6.60;4.43;;;21.70;98.10;;;;;;4989618;28;20074;-73
2022/10/24 12:22:40;;;;;;;;;;;21.80;98.50;;;;;;4989992;28;20117;-76
2022/10/24 12:25:13;;;;;;;6.28;4.50;;;21.80;98.20;;;;;;4989188;28;19993;-72
2022/10/24 12:27:40;;;;;;;8.98;4.03;;;22.00;98.20;;;;;;4972152;28;20038;-75
2022/10/24 12:30:09;;;;;;;9.48;3.95;;;22.00;97.50;;;;;;4990749;28;20050;-73
2022/10/24 12:32:46;;;;;;;5.45;4.32;;;22.00;97.80;;;;;;4989714;28;20494;-76
2022/10/24 12:35:33;;;;;;;8.55;3.95;;;22.10;97.80;;;;;;4998979;28;20038;-73
2022/10/24 12:38:00;;;;;;;4.80;3.45;;;22.10;97.50;;;;;;4990736;28;20493;-72
2022/10/24 12:40:44;;;;;;;8.25;4.55;;;22.20;97.10;;;;;;4973131;28;20042;-73
2022/10/24 12:43:26;;;;;;;5.47;3.80;;;22.30;96.80;;;;;;4991849;28;20540;-72
2022/10/24 12:45:53;;;;;;;6.50;4.00;;;22.40;96.80;;;;;;4986582;28;20061;-73
2022/10/24 12:48:32;;;;;;;7.65;4.45;;;22.70;96.40;;;;;;4984097;28;20034;-73
2022/10/24 12:51:36;;;;;;;10.63;4.70;;;22.60;96.10;;;;;;4979916;28;20395;-76
2022/10/24 12:54:03;;;;;;;7.65;4.53;;;22.70;96.20;;;;;;4981072;28;20038;-74